Terminal Aerodrome Forecast
Issued by NWS

Home | Current Version | Previous Version | Text Only | Print | Product List | Glossary On
Versions: 1 2 3 4 5 6 7 8 9 10 11 12 13 14
000
FTUS44 KCRP 272300
TAFALI
TAF
KALI 272339Z 2800/2824 09008KT P6SM SKC
     FM280800 VRB03KT 6SM BR SCT015
      TEMPO 2811/2814 3SM BR SCT015
     FM281600 18009KT P6SM SCT025
     FM282200 15012KT P6SM SKC=

USA.gov is the U.S. government's official web portal to all federal, state and local government web resources and services.